Time;durP1;ratioP1;P1;durP2;ratioP2;P2;SDS_P1;SDS_P2;PMS_P1;PMS_P2;Temp;Humidity;BMP_temperature;BMP_pressure;BME280_temperature;BME280_humidity;BME280_pressure;Samples;Min_cycle;Max_cycle;Signal;HPM_P1;HPM_P2
2023/05/09 04:37:54;;;;;;;;;;;;;;;17.83;66.25;97061.78;4227215;27;10386;-69
2023/05/09 04:39:57;;;;;;;;;;;;;;;18.10;65.59;97054.88;4230053;28;5791;-69
2023/05/09 04:42:00;;;;;;;;;;;;;;;18.30;65.28;97054.53;4227726;28;5764;-69
2023/05/09 04:44:03;;;;;;;;;;;;;;;18.44;65.09;97050.53;4222935;28;5902;-69
2023/05/09 04:46:07;;;;;;;;;;;;;;;18.60;64.87;97043.63;4213334;28;7801;-69
2023/05/09 04:48:10;;;;;;;;;;;;;;;18.71;64.41;97034.78;4221769;28;5766;-69
2023/05/09 04:50:13;;;;;;;;;;;;;;;18.81;64.38;97039.53;4223085;28;5672;-69
2023/05/09 04:52:16;;;;;;;;;;;;;;;18.87;64.18;97038.53;4226032;28;5698;-69
2023/05/09 04:54:20;;;;;;;;;;;;;;;18.96;64.17;97041.66;4226256;28;5704;-69
2023/05/09 04:56:23;;;;;;;;;;;;;;;19.03;64.00;97035.13;4227026;28;5668;-69
2023/05/09 04:58:26;;;;;;;;;;;;;;;19.09;63.80;97033.31;4226134;28;5675;-69
2023/05/09 05:00:29;;;;;;;;;;;;;;;19.10;63.82;97038.44;4225954;28;5727;-70
2023/05/09 05:02:32;;;;;;;;;;;;;;;19.15;63.58;97037.72;4223900;28;5808;-68
2023/05/09 05:04:35;;;;;;;;;;;;;;;19.16;63.66;97040.16;4227879;28;5679;-69
2023/05/09 05:06:38;;;;;;;;;;;;;;;19.23;63.59;97033.81;4217906;28;5806;-69
2023/05/09 05:08:41;;;;;;;;;;;;;;;19.27;63.63;97041.16;4223532;28;5820;-69
2023/05/09 05:10:46;;;;;;;;;;;;;;;19.31;63.32;97034.25;4224145;28;5775;-69
2023/05/09 05:12:49;;;;;;;;;;;;;;;19.35;63.29;97042.59;4222655;28;5680;-69
2023/05/09 05:14:52;;;;;;;;;;;;;;;19.34;63.33;97030.25;4222751;28;5674;-68
2023/05/09 05:16:54;;;;;;;;;;;;;;;19.35;63.00;97040.72;4230510;28;5740;-73
2023/05/09 05:18:57;;;;;;;;;;;;;;;19.35;63.26;97030.00;4229688;28;5743;-72
2023/05/09 05:21:00;;;;;;;;;;;;;;;19.37;63.35;97040.53;4215292;28;5840;-73
2023/05/09 05:23:03;;;;;;;;;;;;;;;19.38;63.06;97031.41;4218556;28;5835;-72
2023/05/09 05:25:07;;;;;;;;;;;;;;;19.39;63.03;97027.69;4226437;28;5672;-72
2023/05/09 05:27:11;;;;;;;;;;;;;;;19.37;63.13;97027.13;4223816;28;5803;-72
2023/05/09 05:29:16;;;;;;;;;;;;;;;19.38;62.81;97026.06;4230527;28;5763;-72
2023/05/09 05:31:19;;;;;;;;;;;;;;;19.39;62.97;97028.50;4224069;28;5799;-72
2023/05/09 05:33:22;;;;;;;;;;;;;;;19.42;62.94;97021.81;4223437;28;6481;-72
2023/05/09 05:35:27;;;;;;;;;;;;;;;19.43;62.71;97026.94;4223794;28;5831;-72
2023/05/09 05:37:31;;;;;;;;;;;;;;;19.41;62.57;97031.72;4212506;28;5814;-72
2023/05/09 05:39:34;;;;;;;;;;;;;;;19.42;62.71;97027.19;4212107;28;5788;-72
2023/05/09 05:41:37;;;;;;;;;;;;;;;19.41;62.75;97033.59;4213015;28;5772;-73
2023/05/09 05:43:41;;;;;;;;;;;;;;;19.42;62.38;97028.00;4205790;28;5934;-72
2023/05/09 05:45:44;;;;;;;;;;;;;;;19.44;62.69;97031.25;4214658;28;7497;-73
2023/05/09 05:47:47;;;;;;;;;;;;;;;19.45;62.44;97022.13;4214522;28;5940;-73
2023/05/09 05:49:50;;;;;;;;;;;;;;;19.51;62.31;97027.59;4211323;28;5663;-73
2023/05/09 05:51:53;;;;;;;;;;;;;;;19.55;62.11;97028.72;4208746;28;6100;-73
2023/05/09 05:53:56;;;;;;;;;;;;;;;19.59;62.44;97017.28;4214487;28;5774;-72
2023/05/09 05:55:59;;;;;;;;;;;;;;;19.62;62.32;97026.72;4217148;28;5905;-72
2023/05/09 05:58:02;;;;;;;;;;;;;;;19.63;62.01;97021.13;4221892;28;5623;-72
2023/05/09 06:00:09;;;;;;;;;;;;;;;19.67;62.17;97014.19;4212593;28;5679;-73
2023/05/09 06:02:13;;;;;;;;;;;;;;;19.72;61.88;97014.28;4209863;28;5725;-73
2023/05/09 06:04:16;;;;;;;;;;;;;;;19.80;61.98;97020.28;4207059;28;5859;-73
2023/05/09 06:06:20;;;;;;;;;;;;;;;19.80;61.81;97015.72;4211870;28;5665;-73
2023/05/09 06:08:23;;;;;;;;;;;;;;;19.82;62.04;97007.41;4207546;28;5852;-74
2023/05/09 06:10:26;;;;;;;;;;;;;;;19.84;62.00;97011.50;4203969;28;5700;-74
2023/05/09 06:12:29;;;;;;;;;;;;;;;19.88;61.98;97014.50;4213970;28;6387;-73
2023/05/09 06:14:33;;;;;;;;;;;;;;;19.92;61.53;97007.56;4212060;28;5792;-74
2023/05/09 06:16:37;;;;;;;;;;;;;;;19.95;61.51;96999.06;4214682;28;5941;-73
2023/05/09 06:18:40;;;;;;;;;;;;;;;19.94;61.62;97000.13;4215208;28;5685;-73
2023/05/09 06:20:43;;;;;;;;;;;;;;;19.96;61.71;96993.44;4209511;28;5696;-72
2023/05/09 06:22:46;;;;;;;;;;;;;;;20.01;61.42;96985.44;4209493;28;5777;-73
2023/05/09 06:24:49;;;;;;;;;;;;;;;20.06;61.43;96987.41;4217523;28;6468;-73
2023/05/09 06:26:52;;;;;;;;;;;;;;;20.09;61.08;96989.56;4217674;28;5795;-74
2023/05/09 06:28:55;;;;;;;;;;;;;;;20.11;60.97;96992.81;4208881;28;5686;-73
2023/05/09 06:30:58;;;;;;;;;;;;;;;20.11;60.79;96987.44;4217475;28;5661;-73
2023/05/09 06:33:02;;;;;;;;;;;;;;;20.15;60.99;96985.88;4217530;28;5663;-72
2023/05/09 06:35:06;;;;;;;;;;;;;;;20.16;60.75;96982.16;4209142;28;5695;-72
2023/05/09 06:37:09;;;;;;;;;;;;;;;20.16;60.96;96976.78;4208629;28;5776;-73
2023/05/09 06:39:11;;;;;;;;;;;;;;;20.17;60.78;96983.78;4212827;28;5919;-73
2023/05/09 06:41:15;;;;;;;;;;;;;;;20.16;60.91;96987.53;4211986;28;5719;-73
2023/05/09 06:43:18;;;;;;;;;;;;;;;20.15;60.60;96983.19;4212441;28;5751;-73
2023/05/09 06:45:21;;;;;;;;;;;;;;;20.12;60.97;96980.22;4217515;28;5755;-73
2023/05/09 06:47:24;;;;;;;;;;;;;;;20.03;60.80;96977.94;4208804;28;5665;-72
2023/05/09 06:49:29;;;;;;;;;;;;;;;20.02;60.63;96980.88;4211158;28;5683;-75
2023/05/09 06:51:33;;;;;;;;;;;;;;;19.98;60.75;96975.22;4214075;28;5720;-73
2023/05/09 06:53:36;;;;;;;;;;;;;;;19.95;60.92;96972.22;4210708;28;5822;-73
2023/05/09 06:55:40;;;;;;;;;;;;;;;19.88;60.84;96972.38;4215267;28;5778;-73
2023/05/09 06:57:43;;;;;;;;;;;;;;;19.88;60.73;96975.06;4209572;28;5798;-73
2023/05/09 06:59:46;;;;;;;;;;;;;;;19.89;60.89;96965.16;4216171;28;5776;-73
2023/05/09 07:01:48;;;;;;;;;;;;;;;19.89;60.54;96965.16;4208419;28;5707;-73
2023/05/09 07:03:51;;;;;;;;;;;;;;;19.89;60.53;96968.63;4215599;28;7226;-73
2023/05/09 07:05:57;;;;;;;;;;;;;;;19.90;60.33;96962.22;4212448;28;5668;-73
2023/05/09 07:08:00;;;;;;;;;;;;;;;19.91;60.19;96963.03;4216942;28;5660;-73
2023/05/09 07:10:05;;;;;;;;;;;;;;;19.92;60.39;96956.59;4216695;28;5711;-73
2023/05/09 07:12:14;;;;;;;;;;;;;;;19.93;60.22;96944.81;4213589;28;5686;-73
2023/05/09 07:14:17;;;;;;;;;;;;;;;19.96;59.95;96944.31;4208183;28;5925;-72
2023/05/09 07:16:21;;;;;;;;;;;;;;;19.94;59.98;96938.41;4208559;28;7718;-73
2023/05/09 07:18:24;;;;;;;;;;;;;;;19.94;60.08;96936.53;4207809;28;5792;-73
2023/05/09 07:20:28;;;;;;;;;;;;;;;19.97;59.80;96935.22;4200137;28;5694;-73
2023/05/09 07:22:32;;;;;;;;;;;;;;;20.00;59.69;96930.16;4213652;28;5865;-72
2023/05/09 07:24:39;;;;;;;;;;;;;;;20.01;59.56;96937.13;4217056;28;5692;-72
2023/05/09 07:26:42;;;;;;;;;;;;;;;20.00;59.55;96923.97;4201233;28;5929;-72
2023/05/09 07:28:45;;;;;;;;;;;;;;;20.01;59.47;96930.97;4215093;28;5664;-72
2023/05/09 07:30:48;;;;;;;;;;;;;;;20.01;59.43;96923.72;4216859;28;5823;-72
2023/05/09 07:32:51;;;;;;;;;;;;;;;20.01;59.52;96930.97;4216524;28;5775;-73
2023/05/09 07:34:54;;;;;;;;;;;;;;;19.97;59.21;96924.47;4208589;28;5775;-72
2023/05/09 07:36:57;;;;;;;;;;;;;;;19.97;59.49;96919.94;4207095;28;5827;-73
2023/05/09 07:39:02;;;;;;;;;;;;;;;20.00;58.85;96907.88;4206606;28;5891;-73
2023/05/09 07:41:06;;;;;;;;;;;;;;;20.02;58.78;96903.06;4209634;28;5743;-73
2023/05/09 07:43:09;;;;;;;;;;;;;;;20.02;59.06;96901.19;4216100;28;5839;-72
2023/05/09 07:45:12;;;;;;;;;;;;;;;20.03;58.99;96902.00;4207584;28;5695;-72
2023/05/09 07:47:15;;;;;;;;;;;;;;;20.06;58.60;96890.78;4216756;28;5727;-73
2023/05/09 07:49:18;;;;;;;;;;;;;;;20.08;58.40;96894.03;4217374;28;6349;-73
2023/05/09 07:51:22;;;;;;;;;;;;;;;20.09;58.48;96892.16;4217526;28;5691;-73
2023/05/09 07:53:25;;;;;;;;;;;;;;;20.09;58.59;96898.31;4204670;28;5686;-73
2023/05/09 07:55:32;;;;;;;;;;;;;;;20.10;58.51;96885.72;4205833;28;6192;-72
2023/05/09 07:57:35;;;;;;;;;;;;;;;20.13;58.42;96885.22;4217268;28;5818;-72
2023/05/09 07:59:38;;;;;;;;;;;;;;;20.12;58.13;96881.72;4217823;28;5776;-72
2023/05/09 08:01:41;;;;;;;;;;;;;;;20.16;58.14;96880.16;4202113;28;5824;-72
2023/05/09 08:03:44;;;;;;;;;;;;;;;20.18;57.99;96879.91;4200883;28;5749;-72
2023/05/09 08:05:47;;;;;;;;;;;;;;;20.22;58.00;96884.50;4209076;28;5710;-72
2023/05/09 08:07:50;;;;;;;;;;;;;;;20.22;57.81;96878.34;4200922;28;5781;-73
2023/05/09 08:09:53;;;;;;;;;;;;;;;20.22;57.55;96876.47;4209247;28;5096;-73
2023/05/09 08:11:58;;;;;;;;;;;;;;;20.23;57.85;96872.72;4208394;28;5702;-73
2023/05/09 08:14:01;;;;;;;;;;;;;;;20.28;57.61;96878.16;4200792;28;5814;-73
2023/05/09 08:16:05;;;;;;;;;;;;;;;20.33;57.71;96867.44;4202487;28;5686;-74
2023/05/09 08:18:09;;;;;;;;;;;;;;;20.40;57.50;96866.44;4217499;28;5668;-74
2023/05/09 08:20:13;;;;;;;;;;;;;;;20.43;57.48;96855.22;4214685;28;6407;-72
2023/05/09 08:22:23;;;;;;;;;;;;;;;20.46;57.16;96857.41;4200812;28;5705;-72
2023/05/09 08:24:26;;;;;;;;;;;;;;;20.48;56.93;96852.56;4213884;28;5668;-73
2023/05/09 08:26:29;;;;;;;;;;;;;;;20.52;57.02;96851.03;4217433;28;5093;-73
2023/05/09 08:28:33;;;;;;;;;;;;;;;20.53;57.06;96849.94;4203267;28;5698;-72
2023/05/09 08:30:36;;;;;;;;;;;;;;;20.54;57.03;96849.69;4200870;28;5726;-73
2023/05/09 08:32:40;;;;;;;;;;;;;;;20.54;57.06;96843.50;4207177;28;6489;-73
2023/05/09 08:34:43;;;;;;;;;;;;;;;20.54;56.61;96838.13;4210199;28;5845;-73
2023/05/09 08:36:45;;;;;;;;;;;;;;;20.55;56.85;96845.13;4200357;28;5686;-73
2023/05/09 08:38:50;;;;;;;;;;;;;;;20.55;56.81;96847.81;4216749;28;5664;-73
2023/05/09 08:40:53;;;;;;;;;;;;;;;20.59;56.50;96841.66;4217412;28;5762;-72
2023/05/09 08:42:56;;;;;;;;;;;;;;;20.61;56.52;96844.09;4216429;28;5657;-72
2023/05/09 08:45:01;;;;;;;;;;;;;;;20.61;56.70;96841.41;4200594;28;5706;-73
2023/05/09 08:47:05;;;;;;;;;;;;;;;20.57;56.42;96838.44;4200622;28;5686;-72
2023/05/09 08:49:09;;;;;;;;;;;;;;;20.57;56.47;96838.44;4211194;28;5812;-73
2023/05/09 08:51:14;;;;;;;;;;;;;;;20.58;56.14;96833.88;4205814;28;5683;-72
2023/05/09 08:53:18;;;;;;;;;;;;;;;20.58;56.54;96826.63;4204108;28;5683;-72
2023/05/09 08:55:21;;;;;;;;;;;;;;;20.58;56.55;96823.13;4204737;28;5694;-72
2023/05/09 08:57:24;;;;;;;;;;;;;;;20.54;56.25;96827.41;4200099;28;5717;-72
2023/05/09 08:59:28;;;;;;;;;;;;;;;20.53;56.31;96831.97;4205269;28;5672;-73
2023/05/09 09:01:35;;;;;;;;;;;;;;;20.58;56.43;96831.19;4202879;28;7084;-73
2023/05/09 09:03:39;;;;;;;;;;;;;;;20.59;56.16;96816.69;4215292;28;5770;-72
2023/05/09 09:05:42;;;;;;;;;;;;;;;20.58;55.95;96823.94;4201963;28;5781;-72
2023/05/09 09:07:46;;;;;;;;;;;;;;;20.59;56.31;96814.81;4216149;28;5870;-72
2023/05/09 09:09:50;;;;;;;;;;;;;;;20.61;55.91;96814.53;4209123;28;5698;-72
2023/05/09 09:11:54;;;;;;;;;;;;;;;20.62;56.06;96808.13;4200671;28;5803;-72
2023/05/09 09:14:01;;;;;;;;;;;;;;;20.63;55.96;96801.69;4203194;28;5686;-72
2023/05/09 09:16:05;;;;;;;;;;;;;;;20.66;55.85;96798.50;4220554;28;5802;-73
2023/05/09 09:18:12;;;;;;;;;;;;;;;20.69;55.71;96791.78;4220475;28;5774;-73
2023/05/09 09:20:18;;;;;;;;;;;;;;;20.68;56.13;96790.97;4216986;28;5682;-73
2023/05/09 09:22:22;;;;;;;;;;;;;;;20.70;55.79;96799.59;4203612;28;5683;-73
2023/05/09 09:24:25;;;;;;;;;;;;;;;20.72;56.13;96792.06;4203280;28;5694;-73
2023/05/09 09:26:30;;;;;;;;;;;;;;;20.74;55.93;96800.72;4211387;28;5838;-72
2023/05/09 09:28:34;;;;;;;;;;;;;;;20.78;55.83;96793.75;4208755;28;5802;-73
2023/05/09 09:30:44;;;;;;;;;;;;;;;20.78;55.66;96785.69;4220246;28;5676;-72
2023/05/09 09:32:47;;;;;;;;;;;;;;;20.83;55.85;96790.28;4203970;28;5831;-72
2023/05/09 09:35:05;;;;;;;;;;;;;;;20.85;55.66;96782.78;4210015;28;5668;-72
2023/05/09 09:37:09;;;;;;;;;;;;;;;20.86;55.84;96785.22;4208910;28;5690;-72
2023/05/09 09:39:13;;;;;;;;;;;;;;;20.86;55.59;96781.72;4203082;28;5792;-72
2023/05/09 09:41:16;;;;;;;;;;;;;;;20.86;55.77;96779.84;4206430;28;5664;-73
2023/05/09 09:43:19;;;;;;;;;;;;;;;20.86;55.75;96777.16;4219672;28;5680;-73
2023/05/09 09:45:26;;;;;;;;;;;;;;;20.88;55.46;96775.00;4220015;28;5789;-71
2023/05/09 09:47:32;;;;;;;;;;;;;;;20.93;55.65;96774.22;4214489;28;5792;-71
2023/05/09 09:49:36;;;;;;;;;;;;;;;20.98;55.57;96765.41;4202802;28;5780;-72
2023/05/09 09:51:40;;;;;;;;;;;;;;;21.00;55.58;96761.38;4202989;28;5706;-71
2023/05/09 09:53:44;;;;;;;;;;;;;;;21.03;55.34;96749.28;4210996;28;5725;-71
2023/05/09 09:55:50;;;;;;;;;;;;;;;21.06;55.62;96754.13;4202677;28;5834;-73
2023/05/09 09:57:54;;;;;;;;;;;;;;;21.09;55.19;96753.63;4211106;28;6120;-72
2023/05/09 10:00:00;;;;;;;;;;;;;;;21.12;55.26;96750.41;4218786;28;5751;-73
2023/05/09 10:02:05;;;;;;;;;;;;;;;21.12;55.25;96737.78;4202663;28;5833;-72
2023/05/09 10:04:15;;;;;;;;;;;;;;;21.14;55.02;96737.53;4213741;28;5656;-72
2023/05/09 10:06:18;;;;;;;;;;;;;;;21.15;55.06;96731.06;4219722;28;5667;-73
2023/05/09 10:08:25;;;;;;;;;;;;;;;21.12;54.74;96728.91;4214988;28;5694;-73
2023/05/09 10:10:31;;;;;;;;;;;;;;;21.13;55.08;96723.28;4215933;28;5791;-72
2023/05/09 10:12:37;;;;;;;;;;;;;;;21.17;54.84;96720.84;4219312;28;5665;-72
2023/05/09 10:14:42;;;;;;;;;;;;;;;21.18;54.69;96720.63;4210775;28;6372;-71
2023/05/09 10:16:48;;;;;;;;;;;;;;;21.17;54.62;96710.09;4202181;28;5676;-72
2023/05/09 10:18:51;;;;;;;;;;;;;;;21.15;54.51;96712.25;4210911;28;5686;-71
2023/05/09 10:20:55;;;;;;;;;;;;;;;21.15;54.78;96701.50;4219181;28;5676;-72
2023/05/09 10:23:01;;;;;;;;;;;;;;;21.15;54.63;96698.81;4219268;28;5656;-71
2023/05/09 10:25:11;;;;;;;;;;;;;;;21.15;54.56;96688.88;4208953;28;5693;-72
2023/05/09 10:27:21;;;;;;;;;;;;;;;21.21;54.83;96693.22;4213732;28;5771;-72
2023/05/09 10:29:30;;;;;;;;;;;;;;;21.24;54.63;96681.13;4210397;28;5811;-72
2023/05/09 10:31:37;;;;;;;;;;;;;;;21.30;54.59;96685.47;4219182;28;5672;-72
2023/05/09 10:33:43;;;;;;;;;;;;;;;21.33;54.44;96682.25;4204080;28;5703;-72
2023/05/09 10:35:47;;;;;;;;;;;;;;;21.34;54.17;96678.50;4210497;28;5694;-72
2023/05/09 10:37:52;;;;;;;;;;;;;;;21.37;54.40;96674.47;4201973;28;5813;-72
2023/05/09 10:39:56;;;;;;;;;;;;;;;21.43;54.35;96668.84;4211056;28;5684;-72
2023/05/09 10:42:02;;;;;;;;;;;;;;;21.45;54.41;96661.31;4218991;28;5676;-72
2023/05/09 10:44:05;;;;;;;;;;;;;;;21.48;54.39;96660.78;4218626;28;5668;-72
2023/05/09 10:46:09;;;;;;;;;;;;;;;21.51;54.13;96656.75;4208257;28;5789;-72
2023/05/09 10:48:13;;;;;;;;;;;;;;;21.53;54.02;96651.13;4204650;28;6406;-73
2023/05/09 10:50:17;;;;;;;;;;;;;;;21.51;53.79;96646.78;4210200;28;5763;-73
2023/05/09 10:52:21;;;;;;;;;;;;;;;21.52;54.07;96650.31;4206450;28;5690;-73
2023/05/09 10:54:28;;;;;;;;;;;;;;;21.49;53.64;96646.25;4202145;28;5806;-72
2023/05/09 10:56:35;;;;;;;;;;;;;;;21.47;53.88;96642.22;4206212;28;5684;-73
2023/05/09 10:58:39;;;;;;;;;;;;;;;21.42;53.92;96640.34;4203663;28;5694;-73
2023/05/09 11:00:43;;;;;;;;;;;;;;;21.39;53.78;96646.22;4208671;28;6872;-72
2023/05/09 11:03:06;;;;;;;;;;;;;;;21.39;53.81;96640.84;4210330;28;5946;-73
2023/05/09 11:05:19;;;;;;;;;;;;;;;21.40;53.82;96636.28;4207597;28;7718;-73
2023/05/09 11:07:25;;;;;;;;;;;;;;;21.40;53.90;96637.09;4201826;28;5827;-71
2023/05/09 11:09:31;;;;;;;;;;;;;;;21.38;53.57;96625.78;4201695;28;5698;-72
2023/05/09 11:11:34;;;;;;;;;;;;;;;21.37;53.66;96629.56;4201917;28;5781;-72
2023/05/09 11:13:45;;;;;;;;;;;;;;;21.37;53.71;96632.25;4216141;28;5671;-72
2023/05/09 11:16:11;;;;;;;;;;;;;;;21.39;53.51;96622.03;4218519;28;5888;-72
2023/05/09 11:18:14;;;;;;;;;;;;;;;21.42;53.27;96623.41;4218268;28;5684;-72
2023/05/09 11:20:17;;;;;;;;;;;;;;;21.40;53.50;96620.94;4206162;28;5903;-72
2023/05/09 11:22:22;;;;;;;;;;;;;;;21.39;53.24;96619.34;4205373;28;7703;-72
2023/05/09 11:24:29;;;;;;;;;;;;;;;21.35;53.37;96617.47;4208915;28;5799;-72
2023/05/09 11:26:32;;;;;;;;;;;;;;;21.30;53.38;96614.78;4211550;28;5748;-72
2023/05/09 11:28:37;;;;;;;;;;;;;;;21.26;53.62;96610.97;4210611;28;5686;-73
2023/05/09 11:30:42;;;;;;;;;;;;;;;21.22;53.43;96606.13;4216513;28;6409;-71
2023/05/09 11:32:50;;;;;;;;;;;;;;;21.21;53.87;96609.06;4215865;28;5884;-72
2023/05/09 11:35:05;;;;;;;;;;;;;;;21.22;53.87;96616.06;4206463;28;5676;-73
2023/05/09 11:37:10;;;;;;;;;;;;;;;21.21;53.68;96609.88;4215702;28;5703;-73
2023/05/09 11:39:24;;;;;;;;;;;;;;;21.27;53.65;96616.09;4213249;28;5687;-73
2023/05/09 11:41:27;;;;;;;;;;;;;;;21.28;53.44;96612.31;4212274;28;5668;-72
2023/05/09 11:43:30;;;;;;;;;;;;;;;21.31;53.54;96608.31;4212316;28;5834;-72
2023/05/09 11:45:33;;;;;;;;;;;;;;;21.31;53.43;96601.06;4207857;28;5747;-72
2023/05/09 11:47:39;;;;;;;;;;;;;;;21.31;53.56;96605.63;4215307;28;5838;-72
2023/05/09 11:49:43;;;;;;;;;;;;;;;21.32;53.42;96597.28;4207854;28;5109;-73
2023/05/09 11:51:46;;;;;;;;;;;;;;;21.36;53.31;96602.94;4208149;28;6299;-71
2023/05/09 11:53:52;;;;;;;;;;;;;;;21.35;53.49;96604.81;4215961;28;5672;-72
2023/05/09 11:55:56;;;;;;;;;;;;;;;21.37;53.36;96593.78;4198542;28;5820;-73
2023/05/09 11:57:59;;;;;;;;;;;;;;;21.40;53.43;96587.88;4200376;28;5678;-72
2023/05/09 12:00:06;;;;;;;;;;;;;;;21.45;53.09;96585.22;4216401;28;5668;-73
2023/05/09 12:02:09;;;;;;;;;;;;;;;21.48;52.95;96581.97;4205770;28;5780;-70
2023/05/09 12:04:13;;;;;;;;;;;;;;;21.49;53.36;96583.59;4199352;28;5710;-73
2023/05/09 12:06:18;;;;;;;;;;;;;;;21.53;53.14;96581.19;4211293;28;5683;-73
2023/05/09 12:08:23;;;;;;;;;;;;;;;21.56;52.97;96577.97;4205144;28;5776;-72
2023/05/09 12:10:28;;;;;;;;;;;;;;;21.56;52.99;96573.38;4203930;28;5759;-73
2023/05/09 12:12:35;;;;;;;;;;;;;;;21.58;53.24;96573.13;4212479;28;5880;-72
2023/05/09 12:14:39;;;;;;;;;;;;;;;21.58;53.02;96570.44;4214569;28;5759;-72
2023/05/09 12:16:45;;;;;;;;;;;;;;;21.59;53.24;96575.53;4215860;28;5759;-72
2023/05/09 12:18:50;;;;;;;;;;;;;;;21.59;52.84;96567.47;4215932;28;5802;-72
2023/05/09 12:20:54;;;;;;;;;;;;;;;21.59;52.94;96556.72;4215661;28;5652;-72
2023/05/09 12:22:57;;;;;;;;;;;;;;;21.58;52.72;96565.06;4207561;28;5676;-71
2023/05/09 12:25:02;;;;;;;;;;;;;;;21.59;52.43;96553.22;4208631;28;5861;-72
2023/05/09 12:27:06;;;;;;;;;;;;;;;21.56;52.60;96546.50;4207252;28;6387;-72
2023/05/09 12:29:09;;;;;;;;;;;;;;;21.58;52.28;96543.53;4215392;28;5676;-72
2023/05/09 12:31:14;;;;;;;;;;;;;;;21.59;52.57;96543.25;4214024;28;5763;-73
2023/05/09 12:33:17;;;;;;;;;;;;;;;21.61;52.54;96546.47;4214458;28;6529;-73
2023/05/09 12:35:22;;;;;;;;;;;;;;;21.60;52.25;96538.69;4207535;28;5853;-73
2023/05/09 12:37:26;;;;;;;;;;;;;;;21.62;52.09;96547.28;4207326;28;5751;-72
2023/05/09 12:39:29;;;;;;;;;;;;;;;21.63;52.01;96552.41;4209365;28;5694;-72
2023/05/09 12:41:33;;;;;;;;;;;;;;;21.65;51.99;96547.56;4204728;28;5675;-72
2023/05/09 12:43:49;;;;;;;;;;;;;;;21.66;52.30;96543.81;4207079;28;5105;-73
2023/05/09 12:45:53;;;;;;;;;;;;;;;21.64;52.22;96551.34;4215930;28;5652;-73
2023/05/09 12:47:57;;;;;;;;;;;;;;;21.62;52.04;96547.28;4208557;28;5774;-73
2023/05/09 12:50:01;;;;;;;;;;;;;;;21.59;52.08;96534.38;4211660;28;5787;-73
2023/05/09 12:52:04;;;;;;;;;;;;;;;21.60;52.03;96536.00;4219258;28;5788;-73
2023/05/09 12:54:13;;;;;;;;;;;;;;;21.61;51.97;96524.97;4216391;28;5661;-73
2023/05/09 12:56:17;;;;;;;;;;;;;;;21.61;51.94;96521.47;4213829;28;5770;-73
2023/05/09 12:58:21;;;;;;;;;;;;;;;21.61;52.16;96533.03;4214748;28;5793;-72
2023/05/09 13:00:23;;;;;;;;;;;;;;;21.61;51.98;96537.59;4210632;28;5831;-72
2023/05/09 13:02:27;;;;;;;;;;;;;;;21.61;52.15;96541.09;4213999;28;5672;-71
2023/05/09 13:04:31;;;;;;;;;;;;;;;21.62;52.21;96544.59;4213394;28;5789;-72
2023/05/09 13:06:34;;;;;;;;;;;;;;;21.62;52.29;96544.59;4203558;28;5784;-72
2023/05/09 13:08:38;;;;;;;;;;;;;;;21.59;52.09;96545.13;4219115;28;5673;-72
2023/05/09 13:10:42;;;;;;;;;;;;;;;21.58;52.34;96551.59;4218925;28;5747;-72
2023/05/09 13:12:48;;;;;;;;;;;;;;;21.53;52.32;96544.34;4218636;28;5770;-73
2023/05/09 13:14:55;;;;;;;;;;;;;;;21.49;52.77;96541.38;4210269;28;5759;-73
2023/05/09 13:16:58;;;;;;;;;;;;;;;21.45;52.99;96540.31;4217027;28;5774;-73
2023/05/09 13:19:01;;;;;;;;;;;;;;;21.46;53.20;96544.59;4210357;28;5767;-73
2023/05/09 13:21:04;;;;;;;;;;;;;;;21.42;53.20;96534.66;4203443;28;5769;-72
2023/05/09 13:23:07;;;;;;;;;;;;;;;21.42;53.39;96537.34;4215344;28;5782;-73
2023/05/09 13:25:12;;;;;;;;;;;;;;;21.37;53.39;96535.44;4210503;28;5796;-73
2023/05/09 13:27:17;;;;;;;;;;;;;;;21.33;53.86;96533.56;4213345;28;5782;-72
2023/05/09 13:29:20;;;;;;;;;;;;;;;21.24;54.11;96538.63;4214006;28;5856;-71
2023/05/09 13:31:23;;;;;;;;;;;;;;;21.22;53.94;96532.72;4209694;28;5690;-72
2023/05/09 13:33:26;;;;;;;;;;;;;;;21.22;54.05;96543.47;4209853;28;5252;-72
2023/05/09 13:35:30;;;;;;;;;;;;;;;21.19;54.13;96534.06;4210440;28;5761;-72
2023/05/09 13:37:33;;;;;;;;;;;;;;;21.18;54.41;96534.34;4215551;28;5111;-72
2023/05/09 13:39:35;;;;;;;;;;;;;;;21.18;54.52;96528.97;4209751;28;6348;-73
2023/05/09 13:41:38;;;;;;;;;;;;;;;21.19;54.66;96530.56;4218099;28;5732;-71
2023/05/09 13:43:43;;;;;;;;;;;;;;;21.20;54.61;96534.88;4218318;28;5770;-73
2023/05/09 13:45:46;;;;;;;;;;;;;;;21.20;54.73;96530.31;4208662;28;6373;-73
2023/05/09 13:47:50;;;;;;;;;;;;;;;21.20;54.93;96532.19;4218341;28;6539;-73
2023/05/09 13:49:53;;;;;;;;;;;;;;;21.17;54.88;96530.00;4217042;28;5672;-72
2023/05/09 13:51:56;;;;;;;;;;;;;;;21.15;55.34;96542.91;4216084;28;5672;-71
2023/05/09 13:53:59;;;;;;;;;;;;;;;21.13;55.15;96547.75;4210907;28;7731;-73
2023/05/09 13:56:02;;;;;;;;;;;;;;;21.06;55.36;96547.19;4212118;28;5747;-73
2023/05/09 13:58:07;;;;;;;;;;;;;;;20.97;55.70;96546.13;4206417;28;5840;-73
2023/05/09 14:00:15;;;;;;;;;;;;;;;20.89;55.66;96545.56;4213258;28;5905;-73
2023/05/09 14:02:18;;;;;;;;;;;;;;;20.89;55.97;96547.44;4215758;28;5702;-74
2023/05/09 14:04:21;;;;;;;;;;;;;;;20.85;56.23;96544.47;4210870;28;5761;-72
2023/05/09 14:06:24;;;;;;;;;;;;;;;20.86;56.39;96548.78;4215189;28;5874;-73
2023/05/09 14:08:28;;;;;;;;;;;;;;;20.88;56.40;96543.13;4213999;28;5689;-74
2023/05/09 14:10:31;;;;;;;;;;;;;;;20.85;56.41;96539.09;4212391;28;5872;-73
2023/05/09 14:12:34;;;;;;;;;;;;;;;20.83;56.73;96540.41;4217523;28;5791;-72
2023/05/09 14:14:37;;;;;;;;;;;;;;;20.82;56.49;96544.97;4215620;28;5647;-73
2023/05/09 14:16:41;;;;;;;;;;;;;;;20.78;56.61;96535.84;4214332;28;5676;-72
2023/05/09 14:18:44;;;;;;;;;;;;;;;20.76;56.63;96540.69;4216121;28;5752;-73
2023/05/09 14:20:47;;;;;;;;;;;;;;;20.75;56.86;96539.06;4214656;28;6362;-72
2023/05/09 14:22:51;;;;;;;;;;;;;;;20.73;56.94;96541.22;4203879;28;5690;-73
2023/05/09 14:24:55;;;;;;;;;;;;;;;20.69;57.13;96540.09;4209624;28;5747;-73
2023/05/09 14:26:58;;;;;;;;;;;;;;;20.66;57.07;96545.22;4216638;28;5106;-73
2023/05/09 14:29:01;;;;;;;;;;;;;;;20.62;57.27;96539.56;4213158;28;5738;-72
2023/05/09 14:31:05;;;;;;;;;;;;;;;20.58;57.20;96535.75;4215156;28;5767;-73
2023/05/09 14:33:09;;;;;;;;;;;;;;;20.58;57.58;96536.56;4213044;28;5664;-73
2023/05/09 14:35:12;;;;;;;;;;;;;;;20.56;57.75;96527.97;4214458;28;5893;-72
2023/05/09 14:37:15;;;;;;;;;;;;;;;20.57;57.59;96531.47;4208490;28;5647;-72
2023/05/09 14:39:19;;;;;;;;;;;;;;;20.54;57.86;96524.75;4211282;28;5089;-73
2023/05/09 14:41:23;;;;;;;;;;;;;;;20.55;58.09;96528.25;4211197;28;5911;-73
2023/05/09 14:43:26;;;;;;;;;;;;;;;20.55;57.73;96526.38;4210283;28;5706;-72
2023/05/09 14:45:33;;;;;;;;;;;;;;;20.54;58.10;96524.75;4212620;28;5763;-73
2023/05/09 14:47:36;;;;;;;;;;;;;;;20.52;57.88;96513.47;4210767;28;5856;-73
2023/05/09 14:49:40;;;;;;;;;;;;;;;20.52;57.92;96528.78;4210401;28;5770;-74
2023/05/09 14:51:44;;;;;;;;;;;;;;;20.53;58.31;96525.03;4211008;28;5812;-73
2023/05/09 14:53:46;;;;;;;;;;;;;;;20.56;58.35;96527.16;4218753;28;5785;-72
2023/05/09 14:55:50;;;;;;;;;;;;;;;20.55;58.05;96520.19;4210228;28;5982;-73
2023/05/09 14:57:53;;;;;;;;;;;;;;;20.54;58.15;96527.44;4201918;28;5678;-73
2023/05/09 14:59:56;;;;;;;;;;;;;;;20.54;58.34;96515.88;4218839;28;5049;-74
2023/05/09 15:02:11;;;;;;;;;;;;;;;20.54;58.41;96515.88;4207575;28;5690;-73
2023/05/09 15:04:14;;;;;;;;;;;;;;;20.53;58.06;96514.28;4213000;28;5657;-72
2023/05/09 15:06:18;;;;;;;;;;;;;;;20.50;58.13;96520.16;4214955;28;5689;-72
2023/05/09 15:08:21;;;;;;;;;;;;;;;20.48;58.11;96527.66;4201759;28;6428;-73
2023/05/09 15:10:26;;;;;;;;;;;;;;;20.48;58.50;96524.97;4213708;28;5664;-72
2023/05/09 15:12:29;;;;;;;;;;;;;;;20.45;58.51;96522.81;4218621;28;5680;-73
2023/05/09 15:14:32;;;;;;;;;;;;;;;20.47;58.67;96531.44;4218348;28;5778;-73
2023/05/09 15:16:35;;;;;;;;;;;;;;;20.46;58.39;96527.94;4203801;28;5686;-72
2023/05/09 15:18:42;;;;;;;;;;;;;;;20.46;58.60;96527.13;4216441;28;5696;-72
2023/05/09 15:20:45;;;;;;;;;;;;;;;20.43;58.80;96531.16;4202408;28;5706;-73
2023/05/09 15:22:50;;;;;;;;;;;;;;;20.42;59.00;96528.69;4209242;28;5664;-73
2023/05/09 15:24:53;;;;;;;;;;;;;;;20.38;58.88;96528.41;4218233;28;5109;-72
2023/05/09 15:26:56;;;;;;;;;;;;;;;20.38;58.83;96525.72;4217407;28;5759;-73
2023/05/09 15:29:00;;;;;;;;;;;;;;;20.37;59.36;96529.47;4210714;28;5657;-73
2023/05/09 15:31:03;;;;;;;;;;;;;;;20.35;59.16;96524.38;4218289;28;5735;-73
2023/05/09 15:33:06;;;;;;;;;;;;;;;20.34;59.36;96530.00;4209580;28;5777;-73